createdAt,value
2023-08-12T00:00:12.540Z,23.10
2023-08-12T00:02:46.597Z,23.20
2023-08-12T00:05:18.014Z,23.30
2023-08-12T00:07:46.378Z,23.20
2023-08-12T00:10:16.600Z,23.20
2023-08-12T00:12:45.487Z,23.10
2023-08-12T00:15:14.012Z,23.00
2023-08-12T00:17:43.165Z,23.00
2023-08-12T00:20:14.581Z,23.00
2023-08-12T00:22:43.120Z,22.90
2023-08-12T00:25:11.790Z,22.70
2023-08-12T00:27:40.187Z,22.70
2023-08-12T00:30:09.768Z,22.70
2023-08-12T00:32:38.244Z,22.70
2023-08-12T00:35:09.711Z,22.70
2023-08-12T00:37:39.486Z,22.60
2023-08-12T00:40:09.164Z,22.40
2023-08-12T00:42:37.590Z,22.30
2023-08-12T00:45:11.267Z,22.20
2023-08-12T00:47:40.257Z,22.00
2023-08-12T00:50:11.045Z,21.90
2023-08-12T00:52:41.566Z,21.90
2023-08-12T00:55:10.444Z,21.90
2023-08-12T00:57:41.774Z,22.00
2023-08-12T01:00:11.072Z,22.30
2023-08-12T01:02:39.553Z,22.40
2023-08-12T01:05:08.636Z,22.50
2023-08-12T01:07:37.503Z,22.30
2023-08-12T01:10:09.112Z,22.00
2023-08-12T01:12:43.670Z,22.10
2023-08-12T01:15:21.873Z,22.40
2023-08-12T01:17:53.454Z,22.30
2023-08-12T01:20:26.019Z,22.00
2023-08-12T01:22:59.266Z,21.80
2023-08-12T01:25:29.154Z,21.60
2023-08-12T01:27:57.702Z,21.50
2023-08-12T01:30:26.237Z,21.40
2023-08-12T01:32:59.456Z,21.40
2023-08-12T01:35:35.290Z,21.40
2023-08-12T01:38:06.149Z,21.50
2023-08-12T01:40:37.283Z,21.50
2023-08-12T01:43:07.146Z,21.40
2023-08-12T01:45:35.720Z,21.40
2023-08-12T01:48:04.402Z,21.60
2023-08-12T01:50:32.845Z,21.70
2023-08-12T01:53:01.237Z,21.80
2023-08-12T01:55:32.031Z,21.70
2023-08-12T01:58:01.776Z,21.80
2023-08-12T02:00:30.202Z,21.70
2023-08-12T02:02:58.861Z,21.90
2023-08-12T02:05:27.746Z,21.90
2023-08-12T02:07:56.181Z,21.80
2023-08-12T02:10:24.620Z,21.90
2023-08-12T02:12:55.466Z,22.10
2023-08-12T02:15:25.686Z,22.10
2023-08-12T02:17:54.099Z,22.30
2023-08-12T02:20:22.577Z,22.30
2023-08-12T02:22:50.962Z,22.20
2023-08-12T02:25:19.464Z,22.20
2023-08-12T02:27:47.883Z,22.10
2023-08-12T02:30:16.306Z,22.10
2023-08-12T02:32:47.564Z,21.90
2023-08-12T02:35:16.008Z,21.80
2023-08-12T02:37:44.476Z,21.90
2023-08-12T02:40:13.466Z,21.80
2023-08-12T02:42:41.830Z,21.70
2023-08-12T02:45:10.764Z,21.60
2023-08-12T02:47:39.214Z,21.40
2023-08-12T02:50:10.648Z,21.10
2023-08-12T02:52:39.130Z,21.00
2023-08-12T02:55:07.931Z,20.90
2023-08-12T02:57:36.378Z,21.00
2023-08-12T03:00:06.500Z,21.20
2023-08-12T03:02:35.100Z,21.10
2023-08-12T03:05:04.217Z,21.00
2023-08-12T03:07:33.929Z,21.00
2023-08-12T03:10:02.836Z,21.20
2023-08-12T03:12:31.420Z,21.30
2023-08-12T03:14:59.959Z,21.30
2023-08-12T03:17:29.561Z,21.50
2023-08-12T03:20:00.286Z,21.60
2023-08-12T03:22:31.141Z,21.80
2023-08-12T03:25:01.715Z,21.70
2023-08-12T03:27:30.127Z,21.90
2023-08-12T03:29:58.733Z,22.00
2023-08-12T03:32:28.059Z,22.00
2023-08-12T03:34:57.400Z,22.10
2023-08-12T03:37:27.394Z,22.20
2023-08-12T03:39:56.375Z,22.30
2023-08-12T03:42:26.227Z,22.20
2023-08-12T03:44:54.980Z,22.20
2023-08-12T03:47:25.614Z,22.20
2023-08-12T03:49:55.612Z,22.20
2023-08-12T03:52:24.795Z,22.20
2023-08-12T03:54:54.049Z,22.20
2023-08-12T03:57:24.926Z,22.20
2023-08-12T03:59:53.831Z,22.10
2023-08-12T04:02:22.166Z,22.20
2023-08-12T04:04:52.436Z,22.20
2023-08-12T04:07:21.213Z,22.30
2023-08-12T04:09:49.539Z,22.20
2023-08-12T04:12:17.897Z,22.20
2023-08-12T04:14:47.625Z,22.30
2023-08-12T04:17:15.976Z,22.30
2023-08-12T04:19:44.893Z,22.10
2023-08-12T04:22:13.220Z,22.30
2023-08-12T04:24:41.702Z,22.40
2023-08-12T04:27:10.641Z,22.60
2023-08-12T04:29:39.185Z,22.70
2023-08-12T04:32:09.291Z,22.90
2023-08-12T04:34:37.926Z,23.00
2023-08-12T04:37:06.585Z,23.00
2023-08-12T04:39:34.979Z,23.20
2023-08-12T04:42:04.345Z,23.40
2023-08-12T04:44:33.111Z,23.30
2023-08-12T04:47:02.762Z,23.40
2023-08-12T04:49:33.876Z,23.60
2023-08-12T04:52:02.257Z,23.70
2023-08-12T04:54:31.007Z,23.90
2023-08-12T04:57:00.311Z,23.80
2023-08-12T04:59:28.750Z,24.00
2023-08-12T05:02:04.724Z,24.20
2023-08-12T05:04:35.989Z,24.40
2023-08-12T05:07:04.372Z,24.60
2023-08-12T05:09:33.075Z,24.90
2023-08-12T05:12:01.551Z,25.10
2023-08-12T05:14:30.476Z,25.30
2023-08-12T05:16:58.859Z,25.50
2023-08-12T05:19:27.217Z,25.70
2023-08-12T05:21:59.765Z,25.80
2023-08-12T05:24:32.110Z,26.00
2023-08-12T05:27:00.494Z,26.20
2023-08-12T05:29:28.851Z,26.40
2023-08-12T05:31:57.327Z,26.40
2023-08-12T05:34:25.750Z,26.60
2023-08-12T05:36:54.610Z,26.80
2023-08-12T05:39:24.302Z,26.60
2023-08-12T05:41:53.401Z,26.70
2023-08-12T05:44:21.869Z,26.90
2023-08-12T05:46:53.279Z,26.80
2023-08-12T05:49:21.619Z,26.70
2023-08-12T05:51:52.886Z,26.80
2023-08-12T05:54:21.197Z,26.60
2023-08-12T05:56:51.169Z,26.80
2023-08-12T05:59:19.654Z,26.90
2023-08-12T06:01:48.043Z,26.60
2023-08-12T06:04:16.369Z,26.50
2023-08-12T06:06:44.803Z,26.60
2023-08-12T06:09:13.216Z,26.50
2023-08-12T06:11:42.776Z,26.10
2023-08-12T06:14:14.856Z,26.10
2023-08-12T06:16:43.217Z,26.10
2023-08-12T06:19:12.326Z,26.00
2023-08-12T06:21:40.872Z,25.90
2023-08-12T06:24:14.827Z,26.00
2023-08-12T06:26:43.376Z,26.10
2023-08-12T06:29:15.909Z,26.00
2023-08-12T06:31:44.353Z,26.00
2023-08-12T06:34:12.704Z,26.30
2023-08-12T06:36:41.097Z,26.00
2023-08-12T06:39:09.440Z,26.00
2023-08-12T06:41:37.881Z,26.10
2023-08-12T06:44:09.624Z,26.00
2023-08-12T06:46:39.367Z,26.30
2023-08-12T06:49:10.014Z,26.20
2023-08-12T06:51:38.341Z,26.10
2023-08-12T06:54:07.148Z,26.20
2023-08-12T06:56:35.463Z,26.30
2023-08-12T06:59:03.847Z,26.60
2023-08-12T07:01:32.454Z,26.60
2023-08-12T07:04:02.264Z,26.80
2023-08-12T07:06:30.763Z,26.80
2023-08-12T07:08:59.092Z,27.10
2023-08-12T07:11:27.526Z,27.10
2023-08-12T07:13:58.522Z,27.20
2023-08-12T07:16:26.898Z,27.10
2023-08-12T07:18:57.749Z,27.40
2023-08-12T07:21:27.647Z,27.50
2023-08-12T07:26:33.732Z,27.60
2023-08-12T07:29:02.402Z,27.80
2023-08-12T07:31:36.241Z,27.80
2023-08-12T07:34:04.651Z,27.70
2023-08-12T07:36:35.024Z,27.90
2023-08-12T07:39:03.531Z,28.10
2023-08-12T07:41:31.821Z,28.00
2023-08-12T07:44:00.128Z,27.80
2023-08-12T07:46:29.795Z,28.10
2023-08-12T07:48:58.224Z,28.40
2023-08-12T07:51:26.623Z,28.30
2023-08-12T07:53:56.297Z,28.60
2023-08-12T07:56:24.729Z,28.80
2023-08-12T07:58:53.001Z,29.20
2023-08-12T08:01:21.312Z,29.10
2023-08-12T08:03:49.632Z,29.30
2023-08-12T08:06:17.961Z,29.50
2023-08-12T08:08:52.513Z,29.60
2023-08-12T08:11:22.220Z,29.60
2023-08-12T08:13:50.586Z,29.90
2023-08-12T08:16:19.098Z,29.80
2023-08-12T08:18:47.550Z,29.70
2023-08-12T08:21:18.805Z,29.80
2023-08-12T08:23:48.036Z,29.60
2023-08-12T08:26:17.101Z,30.10
2023-08-12T08:28:46.843Z,29.90
2023-08-12T08:31:15.157Z,30.20
2023-08-12T08:33:45.269Z,30.20
2023-08-12T08:36:13.973Z,30.60
2023-08-12T08:38:42.300Z,30.50
2023-08-12T08:41:13.822Z,30.60
2023-08-12T08:43:45.920Z,30.60
2023-08-12T08:46:17.873Z,30.80
2023-08-12T08:48:46.886Z,30.90
2023-08-12T08:51:15.660Z,30.90
2023-08-12T08:53:45.679Z,31.00
2023-08-12T08:56:16.150Z,30.80
2023-08-12T08:58:44.774Z,30.70
2023-08-12T09:01:14.447Z,30.60
2023-08-12T09:03:45.697Z,30.70
2023-08-12T09:06:14.179Z,30.90
2023-08-12T09:08:45.955Z,30.90
2023-08-12T09:11:15.642Z,31.00
2023-08-12T09:13:44.006Z,30.80
2023-08-12T09:16:12.357Z,30.70
2023-08-12T09:18:42.334Z,30.80
2023-08-12T09:21:12.603Z,31.00
2023-08-12T09:23:41.825Z,31.10
2023-08-12T09:26:17.540Z,30.80
2023-08-12T09:28:46.689Z,30.80
2023-08-12T09:31:25.569Z,30.90
2023-08-12T09:33:55.230Z,31.20
2023-08-12T09:36:25.005Z,31.50
2023-08-12T09:38:54.388Z,31.60
2023-08-12T09:41:25.006Z,31.60
2023-08-12T09:43:54.185Z,31.30
2023-08-12T09:46:25.260Z,31.40
2023-08-12T09:48:54.296Z,31.70
2023-08-12T09:51:24.366Z,31.80
2023-08-12T09:53:55.667Z,31.70
2023-08-12T09:56:25.921Z,31.60
2023-08-12T09:58:56.019Z,31.70
2023-08-12T10:01:25.136Z,31.70
2023-08-12T10:03:55.621Z,31.80
2023-08-12T10:06:26.408Z,31.60
2023-08-12T10:08:55.526Z,31.80
2023-08-12T10:11:24.107Z,31.80
2023-08-12T10:13:52.766Z,32.00
2023-08-12T10:16:22.149Z,32.10
2023-08-12T10:18:52.562Z,32.30
2023-08-12T10:21:21.126Z,32.30
2023-08-12T10:23:52.239Z,32.10
2023-08-12T10:26:21.358Z,31.90
2023-08-12T10:28:52.960Z,32.10
2023-08-12T10:31:22.259Z,32.40
2023-08-12T10:33:51.075Z,32.40
2023-08-12T10:36:20.309Z,32.40
2023-08-12T10:38:50.365Z,32.20
2023-08-12T10:41:20.046Z,32.40
2023-08-12T10:43:56.116Z,32.30
2023-08-12T10:46:26.014Z,32.50
2023-08-12T10:49:10.306Z,32.60
2023-08-12T10:51:47.671Z,32.60
2023-08-12T10:54:18.875Z,32.50
2023-08-12T10:57:06.338Z,32.70
2023-08-12T10:59:56.327Z,32.40
2023-08-12T11:02:30.522Z,32.70
2023-08-12T11:05:00.282Z,32.90
2023-08-12T11:07:36.598Z,32.80
2023-08-12T11:10:15.144Z,32.50
2023-08-12T11:12:47.910Z,32.50
2023-08-12T11:15:16.253Z,32.70
2023-08-12T11:17:45.268Z,32.60
2023-08-12T11:20:14.874Z,32.70
2023-08-12T11:22:46.138Z,32.90
2023-08-12T11:25:17.625Z,33.20
2023-08-12T11:27:50.937Z,33.20
2023-08-12T11:30:21.539Z,33.00
2023-08-12T11:32:51.122Z,32.60
2023-08-12T11:35:20.785Z,32.80
2023-08-12T11:37:50.387Z,32.70
2023-08-12T11:40:20.220Z,32.70
2023-08-12T11:42:50.660Z,32.60
2023-08-12T11:45:21.193Z,32.50
2023-08-12T11:47:55.522Z,32.60
2023-08-12T11:50:26.241Z,32.70
2023-08-12T11:52:55.471Z,32.70
2023-08-12T11:55:26.032Z,32.70
2023-08-12T11:57:54.925Z,32.80
2023-08-12T12:00:25.924Z,32.80
2023-08-12T12:02:55.642Z,33.00
2023-08-12T12:05:27.647Z,33.00
2023-08-12T12:07:56.570Z,32.90
2023-08-12T12:10:34.021Z,33.10
2023-08-12T12:13:05.868Z,32.90
2023-08-12T12:15:40.015Z,32.90
2023-08-12T12:18:12.032Z,32.90
2023-08-12T12:20:56.147Z,33.10
2023-08-12T12:23:24.608Z,32.90
2023-08-12T12:26:01.603Z,32.90
2023-08-12T12:28:35.122Z,32.90
2023-08-12T12:31:03.505Z,33.30
2023-08-12T12:33:31.917Z,33.20
2023-08-12T12:36:01.878Z,33.20
2023-08-12T12:38:32.653Z,33.40
2023-08-12T12:41:02.350Z,33.30
2023-08-12T12:43:30.740Z,33.00
2023-08-12T12:45:59.136Z,33.10
2023-08-12T12:48:27.443Z,33.10
2023-08-12T12:50:55.774Z,33.20
2023-08-12T12:53:24.446Z,33.40
2023-08-12T12:55:52.870Z,33.50
2023-08-12T12:58:24.359Z,33.70
2023-08-12T13:00:52.738Z,33.80
2023-08-12T13:03:21.197Z,34.00
2023-08-12T13:05:49.700Z,34.00
2023-08-12T13:08:18.033Z,33.90
2023-08-12T13:10:46.505Z,33.60
2023-08-12T13:13:16.952Z,33.60
2023-08-12T13:15:47.600Z,33.50
2023-08-12T13:18:16.019Z,33.50
2023-08-12T13:20:44.386Z,33.60
2023-08-12T13:23:13.163Z,33.50
2023-08-12T13:25:41.816Z,33.70
2023-08-12T13:28:10.300Z,33.70
2023-08-12T13:30:38.671Z,33.90
2023-08-12T13:33:08.862Z,33.70
2023-08-12T13:35:37.401Z,33.70
2023-08-12T13:38:06.192Z,33.80
2023-08-12T13:40:34.545Z,33.70
2023-08-12T13:43:02.821Z,33.70
2023-08-12T13:45:31.275Z,33.70
2023-08-12T13:47:59.636Z,34.00
2023-08-12T13:50:29.812Z,33.90
2023-08-12T13:52:58.110Z,34.20
2023-08-12T13:55:27.296Z,34.20
2023-08-12T13:57:55.730Z,34.30
2023-08-12T14:00:25.379Z,34.40
2023-08-12T14:02:55.880Z,34.30
2023-08-12T14:05:24.217Z,34.40
2023-08-12T14:07:53.882Z,34.50
2023-08-12T14:10:22.204Z,34.40
2023-08-12T14:12:53.334Z,34.50
2023-08-12T14:15:21.732Z,34.50
2023-08-12T14:17:50.115Z,34.50
2023-08-12T14:20:19.084Z,34.80
2023-08-12T14:22:47.393Z,34.70
2023-08-12T14:25:17.232Z,34.30
2023-08-12T14:27:45.583Z,34.10
2023-08-12T14:30:16.171Z,34.30
2023-08-12T14:32:44.539Z,34.30
2023-08-12T14:35:13.070Z,34.40
2023-08-12T14:37:41.394Z,34.30
2023-08-12T14:40:10.688Z,34.30
2023-08-12T14:42:40.441Z,34.60
2023-08-12T14:45:10.130Z,34.30
2023-08-12T14:47:38.554Z,34.20
2023-08-12T14:50:07.758Z,34.40
2023-08-12T14:52:36.196Z,34.30
2023-08-12T14:55:04.865Z,34.20
2023-08-12T14:57:33.402Z,34.10
2023-08-12T15:00:03.098Z,34.10
2023-08-12T15:02:33.343Z,34.30
2023-08-12T15:05:02.463Z,34.20
2023-08-12T15:07:32.722Z,34.20
2023-08-12T15:10:01.374Z,34.30
2023-08-12T15:12:30.022Z,34.50
2023-08-12T15:14:58.366Z,34.50
2023-08-12T15:17:28.188Z,34.60
2023-08-12T15:19:59.892Z,34.50
2023-08-12T15:22:30.088Z,34.60
2023-08-12T15:24:58.413Z,34.60
2023-08-12T15:27:26.747Z,34.60
2023-08-12T15:29:57.456Z,34.40
2023-08-12T15:32:27.168Z,34.60
2023-08-12T15:34:55.552Z,34.50
2023-08-12T15:37:23.885Z,34.60
2023-08-12T15:39:52.319Z,34.70
2023-08-12T15:42:20.707Z,34.80
2023-08-12T15:44:49.016Z,34.90
2023-08-12T15:47:17.344Z,35.00
2023-08-12T15:49:46.985Z,35.10
2023-08-12T15:52:15.321Z,35.10
2023-08-12T15:54:43.745Z,35.00
2023-08-12T15:57:12.350Z,34.90
2023-08-12T15:59:41.239Z,34.90
2023-08-12T16:02:10.669Z,34.80
2023-08-12T16:04:39.159Z,34.70
2023-08-12T16:07:10.289Z,34.70
2023-08-12T16:09:38.691Z,34.70
2023-08-12T16:12:07.465Z,34.80
2023-08-12T16:14:36.119Z,34.80
2023-08-12T16:17:09.309Z,34.80
2023-08-12T16:19:37.688Z,34.80
2023-08-12T16:22:06.070Z,34.70
2023-08-12T16:24:35.790Z,34.60
2023-08-12T16:27:06.190Z,34.50
2023-08-12T16:29:36.098Z,34.30
2023-08-12T16:32:04.547Z,34.20
2023-08-12T16:34:33.483Z,33.90
2023-08-12T16:37:19.773Z,33.70
2023-08-12T16:39:52.999Z,33.60
2023-08-12T16:42:22.981Z,33.50
2023-08-12T16:44:51.881Z,33.50
2023-08-12T16:47:20.205Z,33.20
2023-08-12T16:49:51.230Z,33.20
2023-08-12T16:52:19.678Z,33.00
2023-08-12T16:54:47.957Z,32.80
2023-08-12T16:57:17.952Z,32.60
2023-08-12T16:59:46.274Z,32.60
2023-08-12T17:02:14.813Z,32.40
2023-08-12T17:04:43.339Z,32.30
2023-08-12T17:07:11.651Z,32.00
2023-08-12T17:09:39.979Z,31.90
2023-08-12T17:12:12.085Z,31.80
2023-08-12T17:14:41.974Z,31.70
2023-08-12T17:17:10.383Z,31.40
2023-08-12T17:19:40.081Z,31.30
2023-08-12T17:22:08.442Z,31.10
2023-08-12T17:24:37.414Z,30.90
2023-08-12T17:27:05.775Z,30.80
2023-08-12T17:29:34.152Z,30.60
2023-08-12T17:32:04.250Z,30.40
2023-08-12T17:34:32.562Z,30.30
2023-08-12T17:37:00.899Z,30.40
2023-08-12T17:39:30.214Z,30.40
2023-08-12T17:41:58.520Z,30.20
2023-08-12T17:44:26.790Z,30.10
2023-08-12T17:46:55.059Z,30.20
2023-08-12T17:49:24.809Z,30.10
2023-08-12T17:51:53.137Z,30.00
2023-08-12T17:54:21.637Z,29.80
2023-08-12T17:56:58.197Z,29.60
2023-08-12T17:59:26.477Z,29.30
2023-08-12T18:01:54.739Z,29.10
2023-08-12T18:04:24.404Z,28.90
2023-08-12T18:06:53.155Z,29.00
2023-08-12T18:09:21.743Z,28.70
2023-08-12T18:11:50.189Z,28.70
2023-08-12T18:14:22.259Z,28.50
2023-08-12T18:16:50.736Z,28.50
2023-08-12T18:19:19.083Z,28.30
2023-08-12T18:21:48.899Z,28.40
2023-08-12T18:24:19.565Z,28.40
2023-08-12T18:26:48.045Z,28.40
2023-08-12T18:29:16.337Z,28.30
2023-08-12T18:31:44.719Z,28.30
2023-08-12T18:34:12.998Z,28.10
2023-08-12T18:36:41.314Z,28.00
2023-08-12T18:39:11.051Z,28.00
2023-08-12T18:41:39.311Z,28.00
2023-08-12T18:44:07.845Z,28.00
2023-08-12T18:46:38.950Z,27.90
2023-08-12T18:49:07.303Z,27.80
2023-08-12T18:51:36.153Z,27.60
2023-08-12T18:54:08.103Z,27.70
2023-08-12T18:56:38.023Z,27.90
2023-08-12T18:59:06.705Z,27.80
2023-08-12T19:01:35.156Z,27.70
2023-08-12T19:04:03.563Z,27.70
2023-08-12T19:06:31.974Z,27.80
2023-08-12T19:09:00.538Z,27.90
2023-08-12T19:11:30.793Z,27.80
2023-08-12T19:14:00.514Z,27.70
2023-08-12T19:16:30.039Z,27.60
2023-08-12T19:18:58.389Z,27.40
2023-08-12T19:21:26.808Z,27.30
2023-08-12T19:23:55.111Z,27.20
2023-08-12T19:26:23.519Z,27.20
2023-08-12T19:28:52.151Z,27.10
2023-08-12T19:31:21.865Z,27.20
2023-08-12T19:33:52.311Z,27.50
2023-08-12T19:36:20.704Z,27.50
2023-08-12T19:38:49.004Z,27.70
2023-08-12T19:41:17.286Z,27.90
2023-08-12T19:43:45.565Z,27.90
2023-08-12T19:46:13.937Z,27.90
2023-08-12T19:48:56.900Z,27.90
2023-08-12T19:51:25.298Z,27.60
2023-08-12T19:53:53.620Z,27.50
2023-08-12T19:56:21.965Z,27.30
2023-08-12T19:58:50.245Z,27.00
2023-08-12T20:01:18.560Z,26.90
2023-08-12T20:03:46.984Z,26.60
2023-08-12T20:06:16.669Z,26.50
2023-08-12T20:08:44.995Z,26.50
2023-08-12T20:11:13.366Z,26.60
2023-08-12T20:13:41.691Z,26.80
2023-08-12T20:16:09.964Z,26.70
2023-08-12T20:18:38.530Z,26.60
2023-08-12T20:21:06.840Z,26.90
2023-08-12T20:23:36.552Z,26.70
2023-08-12T20:26:06.172Z,26.70
2023-08-12T20:28:34.552Z,27.00
2023-08-12T20:31:03.000Z,26.80
2023-08-12T20:33:31.360Z,26.40
2023-08-12T20:35:59.746Z,26.30
2023-08-12T20:38:28.033Z,26.20
2023-08-12T20:40:57.698Z,26.00
2023-08-12T20:43:26.462Z,25.80
2023-08-12T20:45:55.000Z,25.60
2023-08-12T20:48:23.311Z,25.70
2023-08-12T20:50:51.599Z,25.60
2023-08-12T20:53:19.940Z,25.50
2023-08-12T20:55:48.264Z,25.30
2023-08-12T20:58:17.914Z,25.30
2023-08-12T21:00:47.480Z,25.20
2023-08-12T21:03:18.489Z,25.00
2023-08-12T21:05:51.266Z,24.90
2023-08-12T21:08:19.537Z,24.90
2023-08-12T21:10:53.487Z,24.90
2023-08-12T21:13:23.642Z,24.90
2023-08-12T21:15:52.010Z,24.90
2023-08-12T21:18:20.347Z,24.80
2023-08-12T21:20:50.696Z,24.80
2023-08-12T21:23:19.001Z,24.90
2023-08-12T21:25:48.045Z,25.10
2023-08-12T21:28:16.373Z,25.10
2023-08-12T21:30:46.067Z,25.00
2023-08-12T21:33:14.476Z,24.90
2023-08-12T21:35:42.804Z,24.70
2023-08-12T21:38:11.159Z,24.90
2023-08-12T21:40:39.493Z,24.90
2023-08-12T21:43:10.069Z,24.80
2023-08-12T21:45:38.395Z,24.60
2023-08-12T21:48:10.049Z,24.60
2023-08-12T21:50:38.608Z,24.80
2023-08-12T21:53:06.957Z,24.70
2023-08-12T21:55:35.323Z,24.90
2023-08-12T21:58:03.682Z,25.30
2023-08-12T22:00:32.042Z,25.60
2023-08-12T22:03:01.535Z,25.40
2023-08-12T22:05:31.843Z,25.60
2023-08-12T22:08:00.691Z,25.70
2023-08-12T22:10:29.069Z,25.90
2023-08-12T22:12:57.383Z,26.20
2023-08-12T22:15:25.745Z,26.00
2023-08-12T22:17:54.074Z,25.90
2023-08-12T22:20:23.356Z,25.70
2023-08-12T22:22:53.031Z,25.40
2023-08-12T22:25:21.563Z,25.20
2023-08-12T22:27:50.177Z,25.20
2023-08-12T22:30:18.721Z,25.30
2023-08-12T22:32:47.148Z,25.30
2023-08-12T22:35:15.706Z,25.40
2023-08-12T22:37:44.006Z,25.10
2023-08-12T22:40:13.810Z,24.80
2023-08-12T22:42:44.762Z,24.70
2023-08-12T22:45:13.095Z,24.70
2023-08-12T22:47:41.537Z,24.60
2023-08-12T22:50:13.120Z,24.70
2023-08-12T22:52:42.684Z,25.00
2023-08-12T22:55:14.785Z,24.90
2023-08-12T22:57:43.121Z,25.20
2023-08-12T23:00:12.257Z,25.00
2023-08-12T23:02:40.874Z,25.00
2023-08-12T23:05:09.556Z,24.90
2023-08-12T23:07:37.894Z,25.00
2023-08-12T23:10:07.048Z,24.90
2023-08-12T23:12:38.486Z,25.00
2023-08-12T23:15:08.149Z,25.00
2023-08-12T23:17:36.586Z,25.10
2023-08-12T23:20:09.386Z,25.10
2023-08-12T23:22:37.747Z,25.10
2023-08-12T23:25:07.087Z,25.10
2023-08-12T23:27:36.857Z,25.10
2023-08-12T23:30:05.946Z,25.00
2023-08-12T23:32:36.498Z,24.90
2023-08-12T23:35:05.435Z,24.90
2023-08-12T23:37:33.830Z,24.80
2023-08-12T23:40:03.157Z,24.70
2023-08-12T23:42:31.508Z,24.80
2023-08-12T23:45:01.735Z,24.60
2023-08-12T23:47:30.276Z,24.30
2023-08-12T23:49:58.650Z,24.10
2023-08-12T23:52:26.960Z,24.10
2023-08-12T23:54:55.442Z,24.40
2023-08-12T23:57:23.781Z,24.60
2023-08-12T23:59:52.124Z,24.90
